Bahama Spirit — YJRE4 — position and weather

sailwx.info

Track history (hours):
 
Tides and Currents Weather Stations Pressure Air Temp Water Temp Dewpoint Dewpoint Depression Visibility Wind Speed Wind Dir Waves Ship Positions

Bahama Spirit

Last reported at 2018-Jun-16 08:21 UTC. Time now 2018-Jun-19 10:53 UTC.
Position N 25°29' W 079°42'.

Length 187 m; draft 11.5 m.

Type: Cargo ship. MMSI: 576532000.

Date/timePositionNaut miles runAvg speedWind from/ knotsBaromVisibWave heightAir tempDewpointWater temp
2018-Jun-16 08:21N 25°29' W 079°42'3 8.7
2018-Jun-16 08:00N 25°32' W 079°40'4 8.9
2018-Jun-16 07:30N 25°36' W 079°38'5 9.2
2018-Jun-16 06:59N 25°40' W 079°35'5 9.6
2018-Jun-16 06:29N 25°44' W 079°32'5 9.9
2018-Jun-16 06:00N 25°48' W 079°30'510.1
2018-Jun-16 05:30N 25°53' W 079°27'510.4
2018-Jun-16 04:59N 25°57' W 079°24'75 2.3
2018-Jun-14 20:23N 26°02' W 078°02'712.4
2018-Jun-14 19:48N 25°59' W 077°55'412.4
2018-Jun-14 19:28N 25°57' W 077°51'712.3
2018-Jun-14 18:55N 25°53' W 077°45'511.8
2018-Jun-14 18:30N 25°49' W 077°41'611.7
2018-Jun-14 18:00N 25°44' W 077°37'611.7
2018-Jun-14 17:29N 25°39' W 077°35'612.1
2018-Jun-14 16:59N 25°33' W 077°32'  
2018-Jun-08 19:35N 25°57' W 079°25'114.3
2018-Jun-08 19:30N 25°56' W 079°26'714.6
2018-Jun-08 19:00N 25°49' W 079°30'815.4
2018-Jun-08 18:30N 25°42' W 079°32'915.7
2018-Jun-08 17:57N 25°33' W 079°32'  
Track history (hours):
 
Tides and Currents Weather Stations Pressure Air Temp Water Temp Dewpoint Dewpoint Depression Visibility Wind Speed Wind Dir Waves Ship Positions

Bahama Spirit

Last reported at 2018-Jun-16 08:21 UTC. Time now 2018-Jun-19 10:53 UTC.
Position N 25°29' W 079°42'.

Length 187 m; draft 11.5 m.

Type: Cargo ship. MMSI: 576532000.

Date/timePositionNaut miles runAvg speedWind from/ knotsBaromVisibWave heightAir tempDewpointWater temp
2018-Jun-16 08:21N 25°29' W 079°42'3 8.7
2018-Jun-16 08:00N 25°32' W 079°40'4 8.9
2018-Jun-16 07:30N 25°36' W 079°38'5 9.2
2018-Jun-16 06:59N 25°40' W 079°35'5 9.6
2018-Jun-16 06:29N 25°44' W 079°32'5 9.9
2018-Jun-16 06:00N 25°48' W 079°30'510.1
2018-Jun-16 05:30N 25°53' W 079°27'510.4
2018-Jun-16 04:59N 25°57' W 079°24'75 2.3
2018-Jun-14 20:23N 26°02' W 078°02'712.4
2018-Jun-14 19:48N 25°59' W 077°55'412.4
2018-Jun-14 19:28N 25°57' W 077°51'712.3
2018-Jun-14 18:55N 25°53' W 077°45'511.8
2018-Jun-14 18:30N 25°49' W 077°41'611.7
2018-Jun-14 18:00N 25°44' W 077°37'611.7
2018-Jun-14 17:29N 25°39' W 077°35'612.1
2018-Jun-14 16:59N 25°33' W 077°32'  
2018-Jun-08 19:35N 25°57' W 079°25'114.3
2018-Jun-08 19:30N 25°56' W 079°26'714.6
2018-Jun-08 19:00N 25°49' W 079°30'815.4
2018-Jun-08 18:30N 25°42' W 079°32'915.7
2018-Jun-08 17:57N 25°33' W 079°32'  

Dump ship's entire track history